sensor_id;sensor_type;location;lat;lon;timestamp;temperature;humidity
24232;DHT22;12364;47.810;8.810;2022-12-07T04:47:51;7.30;99.90
24232;DHT22;12364;47.810;8.810;2022-12-07T04:54:22;7.00;99.90
24232;DHT22;12364;47.810;8.810;2022-12-07T04:57:40;7.50;99.90
24232;DHT22;12364;47.810;8.810;2022-12-07T05:00:36;7.30;99.90
24232;DHT22;12364;47.810;8.810;2022-12-07T05:03:18;7.50;99.90
24232;DHT22;12364;47.810;8.810;2022-12-07T05:09:32;7.80;99.90
24232;DHT22;12364;47.810;8.810;2022-12-07T05:13:02;7.60;99.90
24232;DHT22;12364;47.810;8.810;2022-12-07T05:15:29;7.50;99.90
24232;DHT22;12364;47.810;8.810;2022-12-07T05:17:56;7.50;99.90
24232;DHT22;12364;47.810;8.810;2022-12-07T05:20:23;7.50;99.90
24232;DHT22;12364;47.810;8.810;2022-12-07T05:22:50;7.40;99.90
24232;DHT22;12364;47.810;8.810;2022-12-07T05:25:17;7.40;99.90
24232;DHT22;12364;47.810;8.810;2022-12-07T05:27:43;7.40;99.90
24232;DHT22;12364;47.810;8.810;2022-12-07T05:30:10;7.40;99.90
24232;DHT22;12364;47.810;8.810;2022-12-07T05:32:38;7.40;99.90
24232;DHT22;12364;47.810;8.810;2022-12-07T05:35:05;7.40;99.90
24232;DHT22;12364;47.810;8.810;2022-12-07T05:37:32;7.50;99.90
24232;DHT22;12364;47.810;8.810;2022-12-07T05:39:59;7.40;99.90
24232;DHT22;12364;47.810;8.810;2022-12-07T05:42:26;7.40;99.90
24232;DHT22;12364;47.810;8.810;2022-12-07T05:44:53;7.40;99.90
24232;DHT22;12364;47.810;8.810;2022-12-07T05:47:20;7.40;99.90
24232;DHT22;12364;47.810;8.810;2022-12-07T05:49:47;7.30;99.90
24232;DHT22;12364;47.810;8.810;2022-12-07T05:52:14;7.30;99.90
24232;DHT22;12364;47.810;8.810;2022-12-07T05:54:41;7.30;99.90
24232;DHT22;12364;47.810;8.810;2022-12-07T05:57:08;7.40;99.90
24232;DHT22;12364;47.810;8.810;2022-12-07T05:59:35;7.40;99.90
24232;DHT22;12364;47.810;8.810;2022-12-07T06:02:03;7.40;99.90
24232;DHT22;12364;47.810;8.810;2022-12-07T06:04:32;7.40;99.90
24232;DHT22;12364;47.810;8.810;2022-12-07T06:06:59;7.50;99.90
24232;DHT22;12364;47.810;8.810;2022-12-07T06:09:27;7.40;99.90
24232;DHT22;12364;47.810;8.810;2022-12-07T06:11:54;7.40;99.90
24232;DHT22;12364;47.810;8.810;2022-12-07T06:14:40;7.40;99.90
24232;DHT22;12364;47.810;8.810;2022-12-07T06:17:07;7.40;99.90
24232;DHT22;12364;47.810;8.810;2022-12-07T06:19:34;7.40;99.90
24232;DHT22;12364;47.810;8.810;2022-12-07T06:22:02;7.40;99.90
24232;DHT22;12364;47.810;8.810;2022-12-07T06:24:31;7.40;99.90
24232;DHT22;12364;47.810;8.810;2022-12-07T06:26:58;7.40;99.90
24232;DHT22;12364;47.810;8.810;2022-12-07T06:29:25;7.40;99.90
24232;DHT22;12364;47.810;8.810;2022-12-07T06:31:52;7.40;99.90
24232;DHT22;12364;47.810;8.810;2022-12-07T06:34:20;7.40;99.90
24232;DHT22;12364;47.810;8.810;2022-12-07T06:36:49;7.40;99.90
24232;DHT22;12364;47.810;8.810;2022-12-07T06:39:19;7.70;99.90
24232;DHT22;12364;47.810;8.810;2022-12-07T06:41:46;7.50;99.90
24232;DHT22;12364;47.810;8.810;2022-12-07T06:44:14;7.50;99.90
24232;DHT22;12364;47.810;8.810;2022-12-07T06:46:41;7.60;99.90
24232;DHT22;12364;47.810;8.810;2022-12-07T06:49:08;7.70;99.90
24232;DHT22;12364;47.810;8.810;2022-12-07T06:51:35;7.70;99.90
24232;DHT22;12364;47.810;8.810;2022-12-07T06:54:03;7.70;99.90
24232;DHT22;12364;47.810;8.810;2022-12-07T06:56:30;7.60;99.90
24232;DHT22;12364;47.810;8.810;2022-12-07T06:58:57;7.60;99.90
24232;DHT22;12364;47.810;8.810;2022-12-07T07:01:24;7.60;99.90
24232;DHT22;12364;47.810;8.810;2022-12-07T07:03:51;7.70;99.90
24232;DHT22;12364;47.810;8.810;2022-12-07T07:06:19;7.60;99.90
24232;DHT22;12364;47.810;8.810;2022-12-07T07:08:46;7.60;99.90
24232;DHT22;12364;47.810;8.810;2022-12-07T07:11:13;7.50;99.90
24232;DHT22;12364;47.810;8.810;2022-12-07T07:13:40;7.50;99.90
24232;DHT22;12364;47.810;8.810;2022-12-07T07:16:07;7.50;99.90
24232;DHT22;12364;47.810;8.810;2022-12-07T07:18:34;7.40;99.90
24232;DHT22;12364;47.810;8.810;2022-12-07T07:21:01;7.50;99.90
24232;DHT22;12364;47.810;8.810;2022-12-07T07:23:28;7.60;99.90
24232;DHT22;12364;47.810;8.810;2022-12-07T07:25:55;7.70;99.90
24232;DHT22;12364;47.810;8.810;2022-12-07T07:28:22;7.80;99.90
24232;DHT22;12364;47.810;8.810;2022-12-07T07:30:49;7.70;99.90
24232;DHT22;12364;47.810;8.810;2022-12-07T07:33:17;7.70;99.90
24232;DHT22;12364;47.810;8.810;2022-12-07T07:35:43;7.60;99.90
24232;DHT22;12364;47.810;8.810;2022-12-07T07:38:10;7.50;99.90
24232;DHT22;12364;47.810;8.810;2022-12-07T07:40:37;7.50;99.90
24232;DHT22;12364;47.810;8.810;2022-12-07T07:43:05;7.50;99.90
24232;DHT22;12364;47.810;8.810;2022-12-07T07:45:31;7.50;99.90
24232;DHT22;12364;47.810;8.810;2022-12-07T07:47:58;7.50;99.90
24232;DHT22;12364;47.810;8.810;2022-12-07T07:50:25;7.50;99.90
24232;DHT22;12364;47.810;8.810;2022-12-07T07:52:52;7.50;99.90
24232;DHT22;12364;47.810;8.810;2022-12-07T07:55:19;7.50;99.90
24232;DHT22;12364;47.810;8.810;2022-12-07T07:57:46;7.50;99.90
24232;DHT22;12364;47.810;8.810;2022-12-07T08:00:20;7.60;99.90
24232;DHT22;12364;47.810;8.810;2022-12-07T08:02:47;7.60;99.90
24232;DHT22;12364;47.810;8.810;2022-12-07T08:05:14;7.50;99.90
24232;DHT22;12364;47.810;8.810;2022-12-07T08:07:41;7.50;99.90
24232;DHT22;12364;47.810;8.810;2022-12-07T08:10:09;7.40;99.90
24232;DHT22;12364;47.810;8.810;2022-12-07T08:12:38;7.40;99.90
24232;DHT22;12364;47.810;8.810;2022-12-07T08:15:26;7.50;99.90
24232;DHT22;12364;47.810;8.810;2022-12-07T08:17:53;7.50;99.90
24232;DHT22;12364;47.810;8.810;2022-12-07T08:20:20;7.50;99.90
24232;DHT22;12364;47.810;8.810;2022-12-07T08:22:47;7.60;99.90
24232;DHT22;12364;47.810;8.810;2022-12-07T08:25:14;7.60;99.90
24232;DHT22;12364;47.810;8.810;2022-12-07T08:27:41;7.70;99.90
24232;DHT22;12364;47.810;8.810;2022-12-07T08:30:08;7.60;99.90
24232;DHT22;12364;47.810;8.810;2022-12-07T08:32:35;7.60;99.90
24232;DHT22;12364;47.810;8.810;2022-12-07T08:35:02;7.60;99.90
24232;DHT22;12364;47.810;8.810;2022-12-07T08:37:29;7.70;99.90
24232;DHT22;12364;47.810;8.810;2022-12-07T08:39:57;7.70;99.90
24232;DHT22;12364;47.810;8.810;2022-12-07T08:42:24;7.80;99.90
24232;DHT22;12364;47.810;8.810;2022-12-07T08:44:56;7.90;99.90
24232;DHT22;12364;47.810;8.810;2022-12-07T08:47:24;8.00;99.90
24232;DHT22;12364;47.810;8.810;2022-12-07T08:49:51;8.20;99.90
24232;DHT22;12364;47.810;8.810;2022-12-07T08:52:19;8.10;99.90
24232;DHT22;12364;47.810;8.810;2022-12-07T08:54:46;8.10;99.90
24232;DHT22;12364;47.810;8.810;2022-12-07T08:57:13;8.20;99.90
24232;DHT22;12364;47.810;8.810;2022-12-07T08:59:40;8.20;99.90
24232;DHT22;12364;47.810;8.810;2022-12-07T09:02:07;8.30;99.90
24232;DHT22;12364;47.810;8.810;2022-12-07T09:04:34;8.30;99.90
24232;DHT22;12364;47.810;8.810;2022-12-07T09:07:01;8.30;99.90
24232;DHT22;12364;47.810;8.810;2022-12-07T09:09:28;8.20;99.90
24232;DHT22;12364;47.810;8.810;2022-12-07T09:11:55;8.20;99.90
24232;DHT22;12364;47.810;8.810;2022-12-07T09:14:22;8.20;99.90
24232;DHT22;12364;47.810;8.810;2022-12-07T09:16:49;8.20;99.90
24232;DHT22;12364;47.810;8.810;2022-12-07T09:19:16;8.20;99.90
24232;DHT22;12364;47.810;8.810;2022-12-07T09:21:43;8.20;99.90
24232;DHT22;12364;47.810;8.810;2022-12-07T09:24:11;8.20;99.90
24232;DHT22;12364;47.810;8.810;2022-12-07T09:26:38;8.10;99.90
24232;DHT22;12364;47.810;8.810;2022-12-07T09:29:07;8.10;99.90
24232;DHT22;12364;47.810;8.810;2022-12-07T09:31:35;8.10;99.90
24232;DHT22;12364;47.810;8.810;2022-12-07T09:34:02;8.10;99.90
24232;DHT22;12364;47.810;8.810;2022-12-07T09:36:29;8.10;99.90
24232;DHT22;12364;47.810;8.810;2022-12-07T09:38:56;8.10;99.90
24232;DHT22;12364;47.810;8.810;2022-12-07T09:41:23;8.10;99.90
24232;DHT22;12364;47.810;8.810;2022-12-07T09:43:51;8.20;99.90
24232;DHT22;12364;47.810;8.810;2022-12-07T09:46:19;8.20;99.90
24232;DHT22;12364;47.810;8.810;2022-12-07T09:48:46;8.20;99.90
24232;DHT22;12364;47.810;8.810;2022-12-07T09:51:16;8.20;99.90
24232;DHT22;12364;47.810;8.810;2022-12-07T09:53:50;8.30;99.90
24232;DHT22;12364;47.810;8.810;2022-12-07T09:56:18;8.30;99.90
24232;DHT22;12364;47.810;8.810;2022-12-07T09:58:45;8.30;99.90
24232;DHT22;12364;47.810;8.810;2022-12-07T10:01:14;8.30;99.90
24232;DHT22;12364;47.810;8.810;2022-12-07T10:04:24;8.30;99.90
24232;DHT22;12364;47.810;8.810;2022-12-07T10:06:31;8.40;99.90
24232;DHT22;12364;47.810;8.810;2022-12-07T10:08:58;8.40;99.90
24232;DHT22;12364;47.810;8.810;2022-12-07T10:11:25;8.60;99.90
24232;DHT22;12364;47.810;8.810;2022-12-07T10:13:52;8.40;99.10
24232;DHT22;12364;47.810;8.810;2022-12-07T10:18:50;8.40;99.70
24232;DHT22;12364;47.810;8.810;2022-12-07T10:21:18;8.50;98.80
24232;DHT22;12364;47.810;8.810;2022-12-07T10:24:14;8.50;98.60
24232;DHT22;12364;47.810;8.810;2022-12-07T10:29:17;8.50;98.70
24232;DHT22;12364;47.810;8.810;2022-12-07T10:31:46;8.50;98.00
24232;DHT22;12364;47.810;8.810;2022-12-07T10:36:48;8.40;96.80
24232;DHT22;12364;47.810;8.810;2022-12-07T10:39:17;8.40;96.80
24232;DHT22;12364;47.810;8.810;2022-12-07T10:41:54;8.50;96.70
24232;DHT22;12364;47.810;8.810;2022-12-07T10:44:28;8.50;95.50
24232;DHT22;12364;47.810;8.810;2022-12-07T10:49:51;8.50;95.20
24232;DHT22;12364;47.810;8.810;2022-12-07T11:00:04;8.50;95.50
24232;DHT22;12364;47.810;8.810;2022-12-07T11:05:16;8.50;96.00
24232;DHT22;12364;47.810;8.810;2022-12-07T11:08:05;8.60;96.10
24232;DHT22;12364;47.810;8.810;2022-12-07T11:15:54;8.60;95.90
24232;DHT22;12364;47.810;8.810;2022-12-07T11:18:26;8.60;96.30
24232;DHT22;12364;47.810;8.810;2022-12-07T11:21:01;8.60;96.30
24232;DHT22;12364;47.810;8.810;2022-12-07T11:26:04;8.60;96.80
24232;DHT22;12364;47.810;8.810;2022-12-07T11:28:44;8.60;96.40
24232;DHT22;12364;47.810;8.810;2022-12-07T11:31:32;8.70;96.80
24232;DHT22;12364;47.810;8.810;2022-12-07T11:36:42;8.80;96.60
24232;DHT22;12364;47.810;8.810;2022-12-07T11:39:15;8.80;96.20
24232;DHT22;12364;47.810;8.810;2022-12-07T11:41:44;8.80;95.60
24232;DHT22;12364;47.810;8.810;2022-12-07T11:46:59;8.80;95.60
24232;DHT22;12364;47.810;8.810;2022-12-07T11:52:02;8.80;95.60
24232;DHT22;12364;47.810;8.810;2022-12-07T11:54:32;8.80;95.20
24232;DHT22;12364;47.810;8.810;2022-12-07T11:57:02;8.90;95.50
24232;DHT22;12364;47.810;8.810;2022-12-07T11:59:38;8.90;95.70
24232;DHT22;12364;47.810;8.810;2022-12-07T12:04:43;8.90;95.90
24232;DHT22;12364;47.810;8.810;2022-12-07T12:07:15;8.90;95.20
24232;DHT22;12364;47.810;8.810;2022-12-07T12:10:15;8.90;95.80
24232;DHT22;12364;47.810;8.810;2022-12-07T12:12:46;8.90;95.70
24232;DHT22;12364;47.810;8.810;2022-12-07T12:15:57;9.00;94.80
24232;DHT22;12364;47.810;8.810;2022-12-07T12:21:04;8.90;95.00
24232;DHT22;12364;47.810;8.810;2022-12-07T12:26:02;8.90;94.90
24232;DHT22;12364;47.810;8.810;2022-12-07T12:28:33;8.90;94.90
24232;DHT22;12364;47.810;8.810;2022-12-07T12:31:15;8.90;94.90
24232;DHT22;12364;47.810;8.810;2022-12-07T12:33:45;8.90;94.70
24232;DHT22;12364;47.810;8.810;2022-12-07T12:41:50;8.90;94.10
24232;DHT22;12364;47.810;8.810;2022-12-07T12:54:22;9.00;94.60
24232;DHT22;12364;47.810;8.810;2022-12-07T12:59:38;8.90;94.70
24232;DHT22;12364;47.810;8.810;2022-12-07T13:02:15;8.90;94.50
24232;DHT22;12364;47.810;8.810;2022-12-07T13:10:01;8.90;94.80
24232;DHT22;12364;47.810;8.810;2022-12-07T13:12:29;8.90;95.10
24232;DHT22;12364;47.810;8.810;2022-12-07T13:14:56;8.90;95.00
24232;DHT22;12364;47.810;8.810;2022-12-07T13:18:22;8.90;95.10
24232;DHT22;12364;47.810;8.810;2022-12-07T13:20:39;9.00;95.60
24232;DHT22;12364;47.810;8.810;2022-12-07T13:22:58;9.00;95.10
24232;DHT22;12364;47.810;8.810;2022-12-07T13:25:33;9.00;95.10
24232;DHT22;12364;47.810;8.810;2022-12-07T13:30:46;9.00;95.20
24232;DHT22;12364;47.810;8.810;2022-12-07T13:33:14;9.00;95.30
24232;DHT22;12364;47.810;8.810;2022-12-07T13:35:41;9.00;95.50
24232;DHT22;12364;47.810;8.810;2022-12-07T13:38:16;9.10;95.40
24232;DHT22;12364;47.810;8.810;2022-12-07T13:43:48;9.20;95.00
24232;DHT22;12364;47.810;8.810;2022-12-07T13:46:16;9.20;94.90
24232;DHT22;12364;47.810;8.810;2022-12-07T13:48:45;9.20;95.10
24232;DHT22;12364;47.810;8.810;2022-12-07T13:51:17;9.20;94.90
24232;DHT22;12364;47.810;8.810;2022-12-07T13:53:49;9.20;94.50
24232;DHT22;12364;47.810;8.810;2022-12-07T13:56:16;9.20;95.00
24232;DHT22;12364;47.810;8.810;2022-12-07T13:58:43;9.20;94.60
24232;DHT22;12364;47.810;8.810;2022-12-07T14:01:10;9.20;95.00
24232;DHT22;12364;47.810;8.810;2022-12-07T14:03:37;9.10;94.90
24232;DHT22;12364;47.810;8.810;2022-12-07T14:06:06;9.20;94.90
24232;DHT22;12364;47.810;8.810;2022-12-07T14:08:33;9.20;95.00
24232;DHT22;12364;47.810;8.810;2022-12-07T14:11:00;9.20;95.10
24232;DHT22;12364;47.810;8.810;2022-12-07T14:13:31;9.30;94.80
24232;DHT22;12364;47.810;8.810;2022-12-07T14:16:03;9.30;94.80
24232;DHT22;12364;47.810;8.810;2022-12-07T14:18:41;9.30;94.60
24232;DHT22;12364;47.810;8.810;2022-12-07T14:23:35;9.30;94.80
24232;DHT22;12364;47.810;8.810;2022-12-07T14:28:40;9.20;94.90
24232;DHT22;12364;47.810;8.810;2022-12-07T14:31:11;9.20;95.10
24232;DHT22;12364;47.810;8.810;2022-12-07T14:33:49;9.20;95.30
24232;DHT22;12364;47.810;8.810;2022-12-07T14:36:16;9.10;95.40
24232;DHT22;12364;47.810;8.810;2022-12-07T14:38:43;9.20;95.50
24232;DHT22;12364;47.810;8.810;2022-12-07T14:41:12;9.10;95.40
24232;DHT22;12364;47.810;8.810;2022-12-07T14:44:08;9.20;95.70
24232;DHT22;12364;47.810;8.810;2022-12-07T14:46:50;9.10;95.40
24232;DHT22;12364;47.810;8.810;2022-12-07T14:49:37;9.10;95.40
24232;DHT22;12364;47.810;8.810;2022-12-07T14:52:04;9.10;95.90
24232;DHT22;12364;47.810;8.810;2022-12-07T14:54:52;9.00;95.90
24232;DHT22;12364;47.810;8.810;2022-12-07T14:57:19;9.00;95.70
24232;DHT22;12364;47.810;8.810;2022-12-07T14:59:46;9.00;95.90
24232;DHT22;12364;47.810;8.810;2022-12-07T15:02:13;8.90;95.80
24232;DHT22;12364;47.810;8.810;2022-12-07T15:04:40;8.90;96.10
24232;DHT22;12364;47.810;8.810;2022-12-07T15:07:18;8.90;96.40
24232;DHT22;12364;47.810;8.810;2022-12-07T15:09:47;8.80;96.50
24232;DHT22;12364;47.810;8.810;2022-12-07T15:12:14;8.80;96.80
24232;DHT22;12364;47.810;8.810;2022-12-07T15:14:41;8.80;96.80
24232;DHT22;12364;47.810;8.810;2022-12-07T15:17:09;8.70;96.90
24232;DHT22;12364;47.810;8.810;2022-12-07T15:19:49;8.70;96.80
24232;DHT22;12364;47.810;8.810;2022-12-07T15:22:16;8.60;96.50
24232;DHT22;12364;47.810;8.810;2022-12-07T15:24:42;8.60;96.60
24232;DHT22;12364;47.810;8.810;2022-12-07T15:27:09;8.60;96.70
24232;DHT22;12364;47.810;8.810;2022-12-07T15:29:36;8.60;96.60
24232;DHT22;12364;47.810;8.810;2022-12-07T15:32:03;8.50;96.60
24232;DHT22;12364;47.810;8.810;2022-12-07T15:34:30;8.50;96.70
24232;DHT22;12364;47.810;8.810;2022-12-07T15:37:06;8.50;96.60
24232;DHT22;12364;47.810;8.810;2022-12-07T15:39:33;8.50;96.60
24232;DHT22;12364;47.810;8.810;2022-12-07T15:42:00;8.40;96.60
24232;DHT22;12364;47.810;8.810;2022-12-07T15:44:27;8.30;96.60
24232;DHT22;12364;47.810;8.810;2022-12-07T15:47:12;8.20;96.70
24232;DHT22;12364;47.810;8.810;2022-12-07T15:49:39;8.10;96.60
24232;DHT22;12364;47.810;8.810;2022-12-07T15:52:06;8.10;96.70
24232;DHT22;12364;47.810;8.810;2022-12-07T15:54:33;8.10;96.60
24232;DHT22;12364;47.810;8.810;2022-12-07T15:57:00;8.10;96.60
24232;DHT22;12364;47.810;8.810;2022-12-07T15:59:27;8.00;96.70
24232;DHT22;12364;47.810;8.810;2022-12-07T16:01:55;8.00;96.70
24232;DHT22;12364;47.810;8.810;2022-12-07T16:04:22;8.00;96.50
24232;DHT22;12364;47.810;8.810;2022-12-07T16:06:49;7.90;96.50
24232;DHT22;12364;47.810;8.810;2022-12-07T16:09:18;7.80;96.60
24232;DHT22;12364;47.810;8.810;2022-12-07T16:11:45;7.80;96.80
24232;DHT22;12364;47.810;8.810;2022-12-07T16:14:12;7.80;96.80
24232;DHT22;12364;47.810;8.810;2022-12-07T16:16:39;7.80;96.70
24232;DHT22;12364;47.810;8.810;2022-12-07T16:19:07;7.80;96.60
24232;DHT22;12364;47.810;8.810;2022-12-07T16:21:34;7.70;96.50
24232;DHT22;12364;47.810;8.810;2022-12-07T16:24:02;7.60;96.60
24232;DHT22;12364;47.810;8.810;2022-12-07T16:26:29;7.60;96.80
24232;DHT22;12364;47.810;8.810;2022-12-07T16:28:57;7.50;96.70
24232;DHT22;12364;47.810;8.810;2022-12-07T16:31:25;7.50;96.90
24232;DHT22;12364;47.810;8.810;2022-12-07T16:33:53;7.50;97.00
24232;DHT22;12364;47.810;8.810;2022-12-07T16:36:20;7.50;96.80
24232;DHT22;12364;47.810;8.810;2022-12-07T16:39:08;7.50;96.80
24232;DHT22;12364;47.810;8.810;2022-12-07T16:41:35;7.50;96.90
24232;DHT22;12364;47.810;8.810;2022-12-07T16:44:03;7.50;96.70
24232;DHT22;12364;47.810;8.810;2022-12-07T16:46:31;7.50;96.50
24232;DHT22;12364;47.810;8.810;2022-12-07T16:48:59;7.40;96.60
24232;DHT22;12364;47.810;8.810;2022-12-07T16:51:26;7.30;96.70
24232;DHT22;12364;47.810;8.810;2022-12-07T16:53:53;7.30;96.90
24232;DHT22;12364;47.810;8.810;2022-12-07T16:56:20;7.20;97.00
24232;DHT22;12364;47.810;8.810;2022-12-07T16:58:47;7.20;97.00
24232;DHT22;12364;47.810;8.810;2022-12-07T17:01:16;7.10;97.00
24232;DHT22;12364;47.810;8.810;2022-12-07T17:03:44;7.00;97.20
24232;DHT22;12364;47.810;8.810;2022-12-07T17:06:12;7.10;97.50
24232;DHT22;12364;47.810;8.810;2022-12-07T17:08:40;7.10;97.30
24232;DHT22;12364;47.810;8.810;2022-12-07T17:11:13;7.10;97.10
24232;DHT22;12364;47.810;8.810;2022-12-07T17:13:41;7.10;97.10
24232;DHT22;12364;47.810;8.810;2022-12-07T17:16:27;7.00;97.10
24232;DHT22;12364;47.810;8.810;2022-12-07T17:18:54;7.10;97.50
24232;DHT22;12364;47.810;8.810;2022-12-07T17:21:21;7.10;96.90
24232;DHT22;12364;47.810;8.810;2022-12-07T17:23:49;7.10;96.70
24232;DHT22;12364;47.810;8.810;2022-12-07T17:26:17;7.00;96.90
24232;DHT22;12364;47.810;8.810;2022-12-07T17:28:45;7.00;96.50
24232;DHT22;12364;47.810;8.810;2022-12-07T17:31:12;6.90;96.40
24232;DHT22;12364;47.810;8.810;2022-12-07T17:33:40;6.80;96.60
24232;DHT22;12364;47.810;8.810;2022-12-07T17:36:10;6.80;96.90
24232;DHT22;12364;47.810;8.810;2022-12-07T17:38:38;6.70;96.90
24232;DHT22;12364;47.810;8.810;2022-12-07T17:41:08;6.70;97.10
24232;DHT22;12364;47.810;8.810;2022-12-07T17:43:36;6.60;97.00
24232;DHT22;12364;47.810;8.810;2022-12-07T17:46:06;6.70;97.00
24232;DHT22;12364;47.810;8.810;2022-12-07T17:48:34;6.70;97.00
24232;DHT22;12364;47.810;8.810;2022-12-07T17:51:01;6.70;97.20
24232;DHT22;12364;47.810;8.810;2022-12-07T17:53:50;6.70;97.20
24232;DHT22;12364;47.810;8.810;2022-12-07T17:56:17;6.60;97.10
24232;DHT22;12364;47.810;8.810;2022-12-07T17:58:54;6.60;97.30
24232;DHT22;12364;47.810;8.810;2022-12-07T18:01:21;6.60;97.20
24232;DHT22;12364;47.810;8.810;2022-12-07T18:03:50;6.70;97.30
24232;DHT22;12364;47.810;8.810;2022-12-07T18:06:17;6.60;97.40
24232;DHT22;12364;47.810;8.810;2022-12-07T18:08:44;6.60;97.50
24232;DHT22;12364;47.810;8.810;2022-12-07T18:11:11;6.60;97.60
24232;DHT22;12364;47.810;8.810;2022-12-07T18:13:38;6.70;97.70
24232;DHT22;12364;47.810;8.810;2022-12-07T18:16:12;6.70;96.90
24232;DHT22;12364;47.810;8.810;2022-12-07T18:18:40;6.70;96.80
24232;DHT22;12364;47.810;8.810;2022-12-07T18:21:08;6.60;96.90
24232;DHT22;12364;47.810;8.810;2022-12-07T18:23:35;6.60;97.00
24232;DHT22;12364;47.810;8.810;2022-12-07T18:26:02;6.50;97.00
24232;DHT22;12364;47.810;8.810;2022-12-07T18:28:29;6.50;97.10
24232;DHT22;12364;47.810;8.810;2022-12-07T18:30:56;6.50;97.10
24232;DHT22;12364;47.810;8.810;2022-12-07T18:33:41;6.50;97.20
24232;DHT22;12364;47.810;8.810;2022-12-07T18:36:08;6.50;97.10
24232;DHT22;12364;47.810;8.810;2022-12-07T18:38:35;6.50;97.10
24232;DHT22;12364;47.810;8.810;2022-12-07T18:41:02;6.50;97.10
24232;DHT22;12364;47.810;8.810;2022-12-07T18:43:29;6.50;97.10
24232;DHT22;12364;47.810;8.810;2022-12-07T18:45:56;6.40;97.00
24232;DHT22;12364;47.810;8.810;2022-12-07T18:48:23;6.30;97.20
24232;DHT22;12364;47.810;8.810;2022-12-07T18:51:00;6.30;97.40
24232;DHT22;12364;47.810;8.810;2022-12-07T18:53:27;6.30;97.30
24232;DHT22;12364;47.810;8.810;2022-12-07T18:56:08;6.30;97.30
24232;DHT22;12364;47.810;8.810;2022-12-07T18:58:36;6.40;97.30
24232;DHT22;12364;47.810;8.810;2022-12-07T19:01:03;6.30;97.30
24232;DHT22;12364;47.810;8.810;2022-12-07T19:03:30;6.30;97.40
24232;DHT22;12364;47.810;8.810;2022-12-07T19:06:04;6.30;97.50
24232;DHT22;12364;47.810;8.810;2022-12-07T19:08:31;6.30;97.40
24232;DHT22;12364;47.810;8.810;2022-12-07T19:10:59;6.30;97.40
24232;DHT22;12364;47.810;8.810;2022-12-07T19:13:50;6.20;97.50
24232;DHT22;12364;47.810;8.810;2022-12-07T19:16:17;6.20;97.70
24232;DHT22;12364;47.810;8.810;2022-12-07T19:18:44;6.40;97.70
24232;DHT22;12364;47.810;8.810;2022-12-07T19:21:17;6.40;97.90
24232;DHT22;12364;47.810;8.810;2022-12-07T19:23:44;6.40;97.60
24232;DHT22;12364;47.810;8.810;2022-12-07T19:26:11;6.30;97.40
24232;DHT22;12364;47.810;8.810;2022-12-07T19:28:38;6.30;97.50
24232;DHT22;12364;47.810;8.810;2022-12-07T19:31:05;6.20;97.60
24232;DHT22;12364;47.810;8.810;2022-12-07T19:33:32;6.30;97.70
24232;DHT22;12364;47.810;8.810;2022-12-07T19:35:59;6.30;97.90
24232;DHT22;12364;47.810;8.810;2022-12-07T19:38:26;6.30;97.70
24232;DHT22;12364;47.810;8.810;2022-12-07T19:41:02;6.30;97.60
24232;DHT22;12364;47.810;8.810;2022-12-07T19:43:30;6.40;97.80
24232;DHT22;12364;47.810;8.810;2022-12-07T19:46:02;6.40;97.90
24232;DHT22;12364;47.810;8.810;2022-12-07T19:48:30;6.40;97.80
24232;DHT22;12364;47.810;8.810;2022-12-07T19:51:03;6.40;98.00
24232;DHT22;12364;47.810;8.810;2022-12-07T19:53:31;6.40;97.80
24232;DHT22;12364;47.810;8.810;2022-12-07T19:55:58;6.50;98.00
24232;DHT22;12364;47.810;8.810;2022-12-07T19:58:25;6.50;97.80
24232;DHT22;12364;47.810;8.810;2022-12-07T20:00:52;6.60;97.70
24232;DHT22;12364;47.810;8.810;2022-12-07T20:03:19;6.60;97.70
24232;DHT22;12364;47.810;8.810;2022-12-07T20:05:46;6.60;97.90
24232;DHT22;12364;47.810;8.810;2022-12-07T20:08:13;6.60;97.50
24232;DHT22;12364;47.810;8.810;2022-12-07T20:10:40;6.60;97.40
24232;DHT22;12364;47.810;8.810;2022-12-07T20:13:07;6.60;97.40
24232;DHT22;12364;47.810;8.810;2022-12-07T20:15:56;6.60;97.50
24232;DHT22;12364;47.810;8.810;2022-12-07T20:18:42;6.60;97.70
24232;DHT22;12364;47.810;8.810;2022-12-07T20:21:10;6.60;97.60
24232;DHT22;12364;47.810;8.810;2022-12-07T20:23:37;6.70;97.70
24232;DHT22;12364;47.810;8.810;2022-12-07T20:26:05;6.70;97.70
24232;DHT22;12364;47.810;8.810;2022-12-07T20:28:33;6.80;97.40
24232;DHT22;12364;47.810;8.810;2022-12-07T20:31:00;6.80;97.40
24232;DHT22;12364;47.810;8.810;2022-12-07T20:33:27;6.80;97.40
24232;DHT22;12364;47.810;8.810;2022-12-07T20:35:59;6.70;97.50
24232;DHT22;12364;47.810;8.810;2022-12-07T20:38:27;6.70;97.70
24232;DHT22;12364;47.810;8.810;2022-12-07T20:40:58;6.70;97.50
24232;DHT22;12364;47.810;8.810;2022-12-07T20:43:25;6.80;97.40
24232;DHT22;12364;47.810;8.810;2022-12-07T20:45:52;6.80;97.30
24232;DHT22;12364;47.810;8.810;2022-12-07T20:48:19;6.90;97.20
24232;DHT22;12364;47.810;8.810;2022-12-07T20:50:46;6.90;97.30
24232;DHT22;12364;47.810;8.810;2022-12-07T20:53:13;7.00;97.20
24232;DHT22;12364;47.810;8.810;2022-12-07T20:55:40;7.00;97.30
24232;DHT22;12364;47.810;8.810;2022-12-07T20:58:07;7.00;97.20
24232;DHT22;12364;47.810;8.810;2022-12-07T21:00:34;7.10;97.10
24232;DHT22;12364;47.810;8.810;2022-12-07T21:03:02;7.10;97.00
24232;DHT22;12364;47.810;8.810;2022-12-07T21:05:30;7.10;97.00
24232;DHT22;12364;47.810;8.810;2022-12-07T21:07:57;7.10;96.90
24232;DHT22;12364;47.810;8.810;2022-12-07T21:10:24;7.10;96.80
24232;DHT22;12364;47.810;8.810;2022-12-07T21:12:51;7.10;96.80
24232;DHT22;12364;47.810;8.810;2022-12-07T21:15:21;7.10;96.70
24232;DHT22;12364;47.810;8.810;2022-12-07T21:17:48;7.10;96.70
24232;DHT22;12364;47.810;8.810;2022-12-07T21:20:15;7.10;96.80
24232;DHT22;12364;47.810;8.810;2022-12-07T21:22:42;7.10;96.60
24232;DHT22;12364;47.810;8.810;2022-12-07T21:25:09;7.10;96.70
24232;DHT22;12364;47.810;8.810;2022-12-07T21:27:37;7.20;96.50
24232;DHT22;12364;47.810;8.810;2022-12-07T21:30:04;7.10;96.30
24232;DHT22;12364;47.810;8.810;2022-12-07T21:32:31;7.10;96.20
24232;DHT22;12364;47.810;8.810;2022-12-07T21:34:58;7.10;96.20
24232;DHT22;12364;47.810;8.810;2022-12-07T21:37:25;7.00;96.00
24232;DHT22;12364;47.810;8.810;2022-12-07T21:39:52;7.00;96.00
24232;DHT22;12364;47.810;8.810;2022-12-07T21:42:19;6.90;96.00
24232;DHT22;12364;47.810;8.810;2022-12-07T21:44:46;6.90;96.10
24232;DHT22;12364;47.810;8.810;2022-12-07T21:47:13;6.90;96.00
24232;DHT22;12364;47.810;8.810;2022-12-07T21:49:40;6.90;96.00
24232;DHT22;12364;47.810;8.810;2022-12-07T21:52:07;7.10;96.00
24232;DHT22;12364;47.810;8.810;2022-12-07T21:54:35;6.90;95.90
24232;DHT22;12364;47.810;8.810;2022-12-07T21:57:02;6.80;95.90
24232;DHT22;12364;47.810;8.810;2022-12-07T21:59:29;6.80;95.80
24232;DHT22;12364;47.810;8.810;2022-12-07T22:01:56;6.80;95.80
24232;DHT22;12364;47.810;8.810;2022-12-07T22:04:24;6.80;95.90
24232;DHT22;12364;47.810;8.810;2022-12-07T22:06:51;6.70;96.10
24232;DHT22;12364;47.810;8.810;2022-12-07T22:09:19;6.70;96.20
24232;DHT22;12364;47.810;8.810;2022-12-07T22:11:45;6.70;96.40
24232;DHT22;12364;47.810;8.810;2022-12-07T22:14:13;6.80;96.30